Time;durP1;ratioP1;P1;durP2;ratioP2;P2;SDS_P1;SDS_P2;PMS_P1;PMS_P2;Temp;Humidity;BMP_temperature;BMP_pressure;BME280_temperature;BME280_humidity;BME280_pressure;Samples;Min_cycle;Max_cycle;Signal;HPM_P1;HPM_P2
2021/11/10 00:02:18;;;;;;;10.70;6.15;;;;;;;0.03;100.00;96601.41;5052403;28;24431;-74
2021/11/10 00:04:46;;;;;;;8.70;6.00;;;;;;;-0.07;100.00;96596.41;5051623;28;24844;-74
2021/11/10 00:07:12;;;;;;;7.63;5.57;;;;;;;0.02;100.00;96597.19;5051942;28;24426;-74
2021/11/10 00:09:39;;;;;;;8.57;5.97;;;;;;;0.16;100.00;96588.56;5051526;28;24435;-74
2021/11/10 00:12:07;;;;;;;9.27;5.68;;;;;;;-0.06;100.00;96574.34;5052032;28;24447;-74
2021/11/10 00:14:33;;;;;;;7.67;5.57;;;;;;;-0.03;100.00;96570.06;5051463;28;24837;-74
2021/11/10 00:17:00;;;;;;;9.63;5.50;;;;;;;0.09;100.00;96579.28;5051792;28;24426;-74
2021/11/10 00:19:28;;;;;;;9.88;6.03;;;;;;;0.28;100.00;96586.78;5051853;28;24431;-74
2021/11/10 00:21:56;;;;;;;8.77;6.00;;;;;;;0.20;100.00;96590.22;5051525;28;24423;-73
2021/11/10 00:24:22;;;;;;;11.23;6.80;;;;;;;0.07;100.00;96593.72;5051114;28;24442;-74
2021/11/10 00:26:49;;;;;;;9.75;6.80;;;;;;;0.05;100.00;96595.47;5051443;28;24446;-74
2021/11/10 00:29:15;;;;;;;11.23;5.60;;;;;;;0.04;100.00;96601.44;5051096;28;24510;-74
2021/11/10 00:31:42;;;;;;;7.93;5.70;;;;;;;0.14;100.00;96608.09;5051435;28;24425;-74
2021/11/10 00:34:08;;;;;;;7.72;5.22;;;;;;;-0.05;100.00;96607.41;5051114;28;24419;-74
2021/11/10 00:36:35;;;;;;;8.18;5.63;;;;;;;-0.21;100.00;96594.84;5050876;28;24422;-74
2021/11/10 00:39:04;;;;;;;8.02;5.57;;;;;;;-0.13;100.00;96600.72;5051051;28;24419;-74
2021/11/10 00:41:31;;;;;;;16.35;6.30;;;;;;;-0.14;100.00;96596.47;5051255;28;24967;-74
2021/11/10 00:44:00;;;;;;;9.30;6.35;;;;;;;-0.34;100.00;96592.34;5050985;28;24519;-74
2021/11/10 00:46:26;;;;;;;8.30;5.63;;;;;;;-0.37;100.00;96577.13;5050912;28;24459;-74
2021/11/10 00:48:53;;;;;;;8.95;6.45;;;;;;;-0.50;100.00;96578.06;5050933;28;24434;-74
2021/11/10 00:51:19;;;;;;;9.32;6.10;;;;;;;-0.58;100.00;96570.47;5050815;28;24423;-73
2021/11/10 00:53:46;;;;;;;9.15;6.05;;;;;;;-0.62;100.00;96573.06;5051153;28;24419;-74
2021/11/10 00:56:14;;;;;;;9.18;6.18;;;;;;;-0.54;100.00;96568.75;5050070;28;24781;-74
2021/11/10 00:58:40;;;;;;;9.63;5.85;;;;;;;-0.32;100.00;96577.94;5050259;28;24987;-74
2021/11/10 01:01:07;;;;;;;11.18;6.95;;;;;;;-0.31;100.00;96568.59;5050940;28;24415;-73
2021/11/10 01:03:33;;;;;;;12.80;8.27;;;;;;;-0.15;100.00;96574.41;5050743;28;24424;-74
2021/11/10 01:06:00;;;;;;;11.25;8.68;;;;;;;-0.01;100.00;96572.59;5050277;28;24599;-74
2021/11/10 01:08:27;;;;;;;11.25;6.45;;;;;;;-0.06;100.00;96587.06;5050706;28;24489;-74
2021/11/10 01:10:56;;;;;;;9.05;6.20;;;;;;;-0.25;100.00;96587.22;5050912;28;24416;-74
2021/11/10 01:13:24;;;;;;;9.23;5.95;;;;;;;-0.39;100.00;96572.91;5050657;28;24971;-74
2021/11/10 01:15:51;;;;;;;8.68;5.80;;;;;;;-0.56;100.00;96584.00;5050407;28;24780;-74
2021/11/10 01:18:18;;;;;;;9.20;5.82;;;;;;;-0.47;100.00;96584.84;5050351;28;24419;-74
2021/11/10 01:20:46;;;;;;;7.05;4.97;;;;;;;-0.32;100.00;96593.19;5050786;28;24646;-74
2021/11/10 01:23:13;;;;;;;7.87;5.60;;;;;;;-0.18;100.00;96607.53;5050460;28;24422;-74
2021/11/10 01:25:40;;;;;;;10.57;5.72;;;;;;;-0.39;100.00;96585.63;5050130;28;24439;-74
2021/11/10 01:28:10;;;;;;;7.63;5.60;;;;;;;-0.49;100.00;96574.66;5050354;28;24435;-74
2021/11/10 01:30:39;;;;;;;10.30;6.10;;;;;;;-0.40;100.00;96573.75;5050356;28;24426;-73
2021/11/10 01:33:06;;;;;;;9.75;5.78;;;;;;;-0.39;100.00;96576.28;5050032;28;24510;-74
2021/11/10 01:35:32;;;;;;;8.07;5.93;;;;;;;-0.34;100.00;96574.53;5050244;28;24419;-74
2021/11/10 01:37:59;;;;;;;6.45;5.40;;;;;;;-0.31;100.00;96574.53;5050153;28;24439;-74
2021/11/10 01:40:26;;;;;;;7.10;5.30;;;;;;;-0.49;100.00;96567.00;5050391;28;24415;-74
2021/11/10 01:42:56;;;;;;;9.55;5.60;;;;;;;-0.59;100.00;96562.88;5050181;28;24557;-74
2021/11/10 01:45:23;;;;;;;9.73;6.18;;;;;;;-0.74;100.00;96562.09;5049626;28;24443;-74
2021/11/10 01:47:50;;;;;;;6.47;5.35;;;;;;;-0.63;100.00;96556.06;5049917;28;24454;-74
2021/11/10 01:50:19;;;;;;;7.85;4.93;;;;;;;-0.63;100.00;96549.31;5050250;28;24426;-74
2021/11/10 01:52:46;;;;;;;8.32;5.68;;;;;;;-0.66;100.00;96543.41;5050000;28;24765;-73
2021/11/10 01:55:13;;;;;;;9.50;5.38;;;;;;;-0.49;100.00;96527.13;5049791;28;24499;-74
2021/11/10 01:57:40;;;;;;;7.10;5.07;;;;;;;-0.40;100.00;96525.41;5050064;28;24412;-74
2021/11/10 02:00:13;;;;;;;6.82;4.95;;;;;;;-0.45;100.00;96522.03;5049829;28;24431;-74
2021/11/10 02:02:41;;;;;;;10.40;5.83;;;;;;;-0.50;100.00;96501.72;5050264;28;24415;-74
2021/11/10 02:05:11;;;;;;;6.88;4.93;;;;;;;-0.37;100.00;96495.69;5049755;28;24494;-74
2021/11/10 02:07:39;;;;;;;7.97;4.88;;;;;;;-0.39;100.00;96489.75;5050098;28;24415;-73
2021/11/10 02:10:07;;;;;;;8.03;5.30;;;;;;;-0.42;100.00;96489.78;5053873;28;24591;-74
2021/11/10 02:12:35;;;;;;;7.07;5.10;;;;;;;-0.30;100.00;96494.78;5053856;28;24430;-74
2021/11/10 02:15:04;;;;;;;5.80;4.50;;;;;;;-0.44;100.00;96494.03;5053642;28;24946;-74
2021/11/10 02:17:31;;;;;;;10.75;5.35;;;;;;;-0.50;100.00;96483.91;5053939;28;24419;-74
2021/11/10 02:19:58;;;;;;;5.88;4.70;;;;;;;-0.52;100.00;96483.94;5053757;28;24514;-74
2021/11/10 02:22:26;;;;;;;7.10;5.18;;;;;;;-0.46;100.00;96488.13;5053797;28;24419;-74
2021/11/10 02:24:53;;;;;;;6.55;5.38;;;;;;;-0.38;100.00;96478.69;5053383;28;24447;-73
2021/11/10 02:27:21;;;;;;;7.82;5.00;;;;;;;-0.43;100.00;96475.38;5053616;28;24434;-73
2021/11/10 02:29:49;;;;;;;6.57;4.90;;;;;;;-0.45;100.00;96473.69;5053835;28;24430;-73
2021/11/10 02:32:16;;;;;;;7.07;5.38;;;;;;;-0.55;100.00;96478.03;5053932;28;24431;-74
2021/11/10 02:34:45;;;;;;;7.50;5.10;;;;;;;-0.73;100.00;96484.94;5053336;28;24550;-73
2021/11/10 02:37:14;;;;;;;9.82;6.20;;;;;;;-0.66;100.00;96479.81;5053590;28;24415;-73
2021/11/10 02:39:42;;;;;;;7.88;6.10;;;;;;;-0.63;100.00;96470.44;5053291;28;24442;-74
2021/11/10 02:42:09;;;;;;;7.90;5.50;;;;;;;-0.68;100.00;96471.31;5053940;28;24419;-74
2021/11/10 02:44:36;;;;;;;9.45;6.80;;;;;;;-0.67;100.00;96473.84;5054046;28;24430;-74
2021/11/10 02:47:05;;;;;;;11.80;6.87;;;;;;;-0.61;100.00;96472.97;5053904;28;24491;-74
2021/11/10 02:49:31;;;;;;;10.55;6.80;;;;;;;-0.66;100.00;96473.00;5053441;28;24422;-74
2021/11/10 02:52:00;;;;;;;9.30;6.75;;;;;;;-0.67;100.00;96476.41;5053664;28;24465;-74
2021/11/10 02:54:29;;;;;;;11.75;7.05;;;;;;;-0.68;100.00;96481.50;5053277;28;24816;-74
2021/11/10 02:57:00;;;;;;;9.85;6.88;;;;;;;-0.68;100.00;96482.34;5053407;28;24450;-74
2021/11/10 02:59:27;;;;;;;11.37;6.80;;;;;;;-0.57;100.00;96479.72;5055976;28;24857;-74
2021/11/10 03:01:54;;;;;;;9.30;6.75;;;;;;;-0.55;100.00;96480.56;5055711;28;24415;-74
2021/11/10 03:04:22;;;;;;;10.40;6.72;;;;;;;-0.53;100.00;96468.66;5053671;28;24427;-74
2021/11/10 03:06:49;;;;;;;10.27;6.22;;;;;;;-0.48;100.00;96469.50;5054362;28;24439;-74
2021/11/10 03:09:19;;;;;;;6.75;5.85;;;;;;;-0.44;100.00;96476.22;5075011;23;25049;-74
2021/11/10 03:11:46;;;;;;;8.43;6.05;;;;;;;-0.46;100.00;96472.00;5073053;28;24513;-74
2021/11/10 03:14:15;;;;;;;10.40;6.60;;;;;;;-0.53;100.00;96472.03;5073223;28;24446;-74
2021/11/10 03:16:42;;;;;;;7.88;6.55;;;;;;;-0.52;100.00;96477.97;5072508;28;24411;-74
2021/11/10 03:19:08;;;;;;;8.75;6.40;;;;;;;-0.50;100.00;96479.66;5079713;28;24437;-74
2021/11/10 03:21:35;;;;;;;10.13;6.90;;;;;;;-0.57;100.00;96474.63;5092228;28;24947;-74
2021/11/10 03:24:02;;;;;;;8.88;6.13;;;;;;;-0.75;100.00;96471.38;5093082;28;24414;-74
2021/11/10 03:26:28;;;;;;;8.13;5.80;;;;;;;-0.92;100.00;96473.19;5092619;28;24448;-74
2021/11/10 03:28:55;;;;;;;7.63;5.55;;;;;;;-1.10;100.00;96480.94;5092732;28;24429;-74
2021/11/10 03:31:23;;;;;;;9.63;5.40;;;;;;;-1.04;100.00;96480.88;5092777;28;24434;-74
2021/11/10 03:33:49;;;;;;;6.50;5.10;;;;;;;-0.96;100.00;96486.78;5092500;28;24422;-74
2021/11/10 03:36:16;;;;;;;8.30;5.32;;;;;;;-0.84;100.00;96475.69;5092554;28;24417;-74
2021/11/10 03:38:42;;;;;;;7.40;5.00;;;;;;;-0.91;100.00;96484.22;5092771;28;24418;-74
2021/11/10 03:41:09;;;;;;;7.20;4.75;;;;;;;-0.82;100.00;96484.13;5092720;28;24414;-74
2021/11/10 03:43:36;;;;;;;6.45;5.25;;;;;;;-0.71;100.00;96487.44;5092597;28;24429;-74
2021/11/10 03:46:03;;;;;;;6.93;4.57;;;;;;;-0.66;100.00;96489.97;5092063;28;24446;-74
2021/11/10 03:48:31;;;;;;;6.28;4.60;;;;;;;-0.58;100.00;96501.78;5092273;28;24414;-74
2021/11/10 03:50:58;;;;;;;7.78;5.32;;;;;;;-0.43;100.00;96498.28;5092604;28;24418;-73
2021/11/10 03:53:24;;;;;;;12.15;5.20;;;;;;;-0.39;100.00;96504.19;5092497;28;24418;-74
2021/11/10 03:55:51;;;;;;;8.02;4.75;;;;;;;-0.48;100.00;96515.28;5092108;28;24795;-74
2021/11/10 03:58:17;;;;;;;8.35;5.03;;;;;;;-0.59;100.00;96515.38;5092824;28;24414;-75
2021/11/10 04:00:44;;;;;;;10.13;5.10;;;;;;;-0.66;100.00;96516.25;5092691;28;24497;-75
2021/11/10 04:03:11;;;;;;;6.53;4.88;;;;;;;-0.58;100.00;96518.75;5092595;28;24414;-75
2021/11/10 04:05:42;;;;;;;7.72;4.97;;;;;;;-0.68;100.00;96509.47;5092475;28;24453;-75
2021/11/10 04:08:09;;;;;;;10.10;5.63;;;;;;;-1.01;100.00;96506.28;5093149;28;25008;-75
2021/11/10 04:10:35;;;;;;;8.93;5.37;;;;;;;-1.23;100.00;96493.69;5092410;28;24514;-75
2021/11/10 04:13:02;;;;;;;8.60;5.57;;;;;;;-1.00;100.00;96485.97;5092482;28;24421;-75
2021/11/10 04:15:28;;;;;;;12.63;5.30;;;;;;;-0.90;100.00;96494.38;5091931;28;24406;-75
2021/11/10 04:17:55;;;;;;;8.25;5.53;;;;;;;-0.85;100.00;96497.75;5092511;28;24994;-76
2021/11/10 04:20:21;;;;;;;6.97;4.68;;;;;;;-0.55;100.00;96504.31;5092220;28;24422;-75
2021/11/10 04:22:49;;;;;;;7.63;5.13;;;;;;;-0.66;100.00;96503.53;5092665;28;24422;-75
2021/11/10 04:25:16;;;;;;;11.02;5.00;;;;;;;-0.82;100.00;96499.41;5092002;28;24438;-74
2021/11/10 04:27:42;;;;;;;7.70;5.30;;;;;;;-0.92;100.00;96493.53;5090689;28;24441;-75
2021/11/10 04:30:11;;;;;;;7.53;5.53;;;;;;;-1.00;100.00;96496.13;5089861;28;24446;-75
2021/11/10 04:32:37;;;;;;;8.50;5.28;;;;;;;-1.12;100.00;96497.88;5091769;28;24529;-75
2021/11/10 04:35:06;;;;;;;9.93;5.20;;;;;;;-1.17;100.00;96497.06;5090925;28;24472;-75
2021/11/10 04:37:32;;;;;;;8.85;5.05;;;;;;;-1.11;100.00;96502.09;5091758;28;24430;-75
2021/11/10 04:40:02;;;;;;;7.43;5.00;;;;;;;-1.18;100.00;96508.94;5090935;28;24549;-75
2021/11/10 04:42:29;;;;;;;7.22;5.18;;;;;;;-1.23;100.00;96508.09;5087189;28;24438;-75
2021/11/10 04:45:03;;;;;;;6.80;5.38;;;;;;;-1.27;100.00;96512.34;5072039;28;24427;-75
2021/11/10 04:47:30;;;;;;;7.43;5.18;;;;;;;-1.19;100.00;96514.84;5073376;28;24792;-76
2021/11/10 04:49:56;;;;;;;9.20;5.45;;;;;;;-1.08;100.00;96514.81;5079690;28;24437;-75
2021/11/10 04:52:24;;;;;;;7.55;5.60;;;;;;;-0.96;100.00;96524.94;5090740;28;24433;-74
2021/11/10 04:54:51;;;;;;;11.25;6.43;;;;;;;-0.73;100.00;96534.97;5082271;28;24438;-74
2021/11/10 04:57:19;;;;;;;8.73;6.40;;;;;;;-0.77;100.00;96507.84;5091113;28;24407;-74
2021/11/10 04:59:45;;;;;;;9.45;6.82;;;;;;;-0.93;100.00;96491.84;5091226;28;24978;-74
2021/11/10 05:02:24;;;;;;;11.75;6.65;;;;;;;-1.15;100.00;96490.28;5091416;28;24421;-73
2021/11/10 05:04:53;;;;;;;13.25;6.18;;;;;;;-1.25;100.00;96479.34;5089466;28;24430;-74
2021/11/10 05:07:20;;;;;;;10.25;5.88;;;;;;;-1.28;100.00;96482.72;5081217;28;24478;-73
2021/11/10 05:09:47;;;;;;;9.48;6.05;;;;;;;-1.19;100.00;96486.91;5090237;28;24434;-74
2021/11/10 05:12:14;;;;;;;8.43;5.65;;;;;;;-1.19;100.00;96489.44;5080059;28;24986;-75
2021/11/10 05:14:43;;;;;;;8.32;5.50;;;;;;;-1.17;100.00;96474.19;5080282;28;24438;-73
2021/11/10 05:17:09;;;;;;;8.02;5.50;;;;;;;-1.06;100.00;96473.28;5089191;28;24458;-75
2021/11/10 05:19:36;;;;;;;15.57;5.63;;;;;;;-0.98;100.00;96481.69;5076266;28;24434;-74
2021/11/10 05:22:03;;;;;;;8.55;5.95;;;;;;;-0.99;100.00;96476.63;5085740;28;24776;-74
2021/11/10 05:24:29;;;;;;;8.00;5.72;;;;;;;-1.23;100.00;96485.22;5083336;28;24985;-74
2021/11/10 05:26:56;;;;;;;9.25;5.97;;;;;;;-1.32;100.00;96493.75;5090624;28;24442;-74
2021/11/10 05:29:22;;;;;;;8.68;5.72;;;;;;;-1.28;100.00;96489.50;5090543;28;24458;-73
2021/11/10 05:31:50;;;;;;;7.85;5.90;;;;;;;-1.23;100.00;96487.78;5090468;28;24421;-73
2021/11/10 05:34:17;;;;;;;9.55;5.82;;;;;;;-1.14;100.00;96476.72;5090228;28;24969;-73
2021/11/10 05:36:43;;;;;;;7.47;5.70;;;;;;;-1.10;100.00;96493.66;5089842;28;24410;-73
2021/11/10 05:39:10;;;;;;;8.70;6.00;;;;;;;-1.13;100.00;96496.19;5090370;28;24425;-74
2021/11/10 05:41:36;;;;;;;12.20;6.30;;;;;;;-1.19;100.00;96489.44;5090193;28;24433;-74
2021/11/10 05:44:03;;;;;;;7.90;6.10;;;;;;;-1.20;100.00;96492.00;5089933;28;24449;-75
2021/11/10 05:46:29;;;;;;;13.02;7.20;;;;;;;-1.29;100.00;96496.28;5089817;28;24967;-74
2021/11/10 05:48:57;;;;;;;12.23;6.75;;;;;;;-1.26;100.00;96503.91;5090212;28;24425;-75
2021/11/10 05:51:24;;;;;;;7.65;6.38;;;;;;;-1.18;100.00;96508.09;5090050;28;24505;-74
2021/11/10 05:53:53;;;;;;;12.13;7.50;;;;;;;-1.20;100.00;96499.63;5090269;28;24425;-74
2021/11/10 05:56:21;;;;;;;13.20;8.00;;;;;;;-1.27;100.00;96511.50;5089768;28;24414;-75
2021/11/10 05:58:47;;;;;;;11.55;8.32;;;;;;;-1.26;100.00;96511.53;5090154;28;24426;-74
2021/11/10 06:01:14;;;;;;;22.10;15.67;;;;;;;-1.32;100.00;96500.53;5090014;28;24446;-74
2021/11/10 06:03:41;;;;;;;18.45;12.15;;;;;;;-1.45;100.00;96497.19;5089917;28;24418;-75
2021/11/10 06:06:09;;;;;;;14.37;10.77;;;;;;;-1.38;100.00;96496.31;5089851;28;24450;-73
2021/11/10 06:08:37;;;;;;;17.20;11.43;;;;;;;-1.46;100.00;96498.91;5089871;28;24993;-73
2021/11/10 06:11:04;;;;;;;19.67;12.80;;;;;;;-1.56;100.00;96492.19;5089929;28;24453;-73
2021/11/10 06:13:30;;;;;;;14.63;10.13;;;;;;;-1.38;100.00;96503.94;5090085;28;24514;-76
2021/11/10 06:15:57;;;;;;;16.75;10.10;;;;;;;-1.36;100.00;96509.88;5089493;28;24422;-74
2021/11/10 06:18:23;;;;;;;10.63;7.88;;;;;;;-1.40;100.00;96499.75;5089624;28;24791;-73
2021/11/10 06:20:50;;;;;;;17.10;9.90;;;;;;;-1.27;100.00;96498.81;5090132;28;24426;-73
2021/11/10 06:23:18;;;;;;;10.60;7.72;;;;;;;-1.13;100.00;96508.91;5089848;28;24978;-73
2021/11/10 06:25:44;;;;;;;8.90;7.07;;;;;;;-1.09;100.00;96501.25;5089857;28;24418;-72
2021/11/10 06:28:11;;;;;;;14.27;6.75;;;;;;;-1.10;100.00;96497.03;5089794;28;24422;-77
2021/11/10 06:30:37;;;;;;;9.02;6.35;;;;;;;-1.05;100.00;96502.94;5089101;28;24583;-74
2021/11/10 06:33:04;;;;;;;10.10;7.10;;;;;;;-1.08;100.00;96497.00;5089361;28;24939;-73
2021/11/10 06:35:30;;;;;;;9.48;6.85;;;;;;;-1.22;100.00;96494.56;5089210;28;24422;-74
2021/11/10 06:37:57;;;;;;;7.78;5.80;;;;;;;-1.33;100.00;96496.31;5089216;28;24771;-71
2021/11/10 06:40:25;;;;;;;7.95;5.60;;;;;;;-1.19;100.00;96508.94;5089500;28;24418;-74
2021/11/10 06:42:51;;;;;;;6.70;4.07;;;;;;;-1.15;100.00;96513.16;5089597;28;24433;-74
2021/11/10 06:45:18;;;;;;;6.55;4.70;;;;;;;-1.28;100.00;96497.13;5089509;28;24529;-75
2021/11/10 06:47:45;;;;;;;5.43;4.05;;;;;;;-1.21;100.00;96503.88;5089731;28;24441;-75
2021/11/10 06:50:12;;;;;;;5.93;4.60;;;;;;;-1.04;100.00;96491.94;5090460;28;24418;-75
2021/11/10 06:52:39;;;;;;;8.77;5.97;;;;;;;-1.11;100.00;96491.94;5090370;28;24517;-76
2021/11/10 06:55:06;;;;;;;12.77;7.18;;;;;;;-1.20;100.00;96487.75;5091768;28;25001;-76
2021/11/10 06:57:35;;;;;;;11.07;6.93;;;;;;;-1.15;100.00;96493.69;5093856;28;24422;-78
2021/11/10 07:00:03;;;;;;;10.10;7.00;;;;;;;-1.11;100.00;96500.44;5093422;28;24421;-76
2021/11/10 07:02:29;;;;;;;14.27;6.90;;;;;;;-1.02;100.00;96504.63;5093587;28;24442;-76
2021/11/10 07:04:56;;;;;;;9.55;6.80;;;;;;;-1.13;100.00;96502.13;5093266;28;24430;-77
2021/11/10 07:07:22;;;;;;;11.38;7.32;;;;;;;-1.39;100.00;96501.41;5093258;28;24448;-76
2021/11/10 07:09:48;;;;;;;10.57;7.07;;;;;;;-1.20;100.00;96513.19;5093117;28;24425;-76
2021/11/10 07:12:15;;;;;;;11.32;6.82;;;;;;;-1.02;100.00;96524.94;5092886;28;24433;-77
2021/11/10 07:14:43;;;;;;;11.88;7.28;;;;;;;-0.82;100.00;96514.66;5092578;28;24438;-76
2021/11/10 07:17:09;;;;;;;16.95;7.60;;;;;;;-0.69;100.00;96520.53;5093186;28;24430;-76
2021/11/10 07:19:36;;;;;;;9.10;6.65;;;;;;;-0.55;100.00;96531.44;5093039;28;24781;-76
2021/11/10 07:22:03;;;;;;;7.50;6.03;;;;;;;-0.41;100.00;96549.16;5092956;28;24436;-76
2021/11/10 07:24:30;;;;;;;8.02;5.88;;;;;;;-0.49;100.00;96528.84;5092590;28;24414;-77
2021/11/10 07:26:56;;;;;;;10.55;7.18;;;;;;;-0.65;100.00;96529.81;5093152;28;24469;-76
2021/11/10 07:29:23;;;;;;;10.18;7.25;;;;;;;-0.73;100.00;96530.72;5092465;28;24441;-76
2021/11/10 07:31:51;;;;;;;10.13;7.03;;;;;;;-0.85;100.00;96538.44;5093079;28;24484;-77
2021/11/10 07:34:17;;;;;;;8.13;6.43;;;;;;;-0.87;100.00;96535.03;5090462;28;24437;-77
2021/11/10 07:36:45;;;;;;;8.63;6.85;;;;;;;-0.85;100.00;96535.03;5093264;28;24426;-77
2021/11/10 07:39:12;;;;;;;14.60;7.60;;;;;;;-0.79;100.00;96532.44;5093554;28;24826;-77
2021/11/10 07:41:38;;;;;;;9.20;7.40;;;;;;;-0.61;100.00;96537.41;5092934;28;24426;-77
2021/11/10 07:44:07;;;;;;;9.38;6.85;;;;;;;-0.44;100.00;96544.94;5093658;28;24430;-77
2021/11/10 07:46:34;;;;;;;10.45;7.13;;;;;;;-0.34;100.00;96538.06;5092286;28;24465;-75
2021/11/10 07:49:03;;;;;;;10.07;6.83;;;;;;;-0.38;100.00;96538.94;5092627;28;24784;-75
2021/11/10 07:51:30;;;;;;;9.73;6.55;;;;;;;-0.32;100.00;96531.28;5092392;28;24421;-75
2021/11/10 07:53:57;;;;;;;13.30;8.35;;;;;;;-0.48;100.00;96522.91;5092426;28;24435;-75
2021/11/10 07:56:23;;;;;;;10.90;8.18;;;;;;;-0.38;100.00;96521.13;5091980;28;24410;-75
2021/11/10 07:58:50;;;;;;;10.67;7.70;;;;;;;-0.39;100.00;96522.00;5092608;28;24788;-74
2021/11/10 08:01:17;;;;;;;11.15;7.18;;;;;;;-0.25;100.00;96525.28;5092632;28;24442;-74
2021/11/10 08:03:43;;;;;;;9.85;6.78;;;;;;;-0.01;100.00;96526.75;5092308;28;24415;-75
2021/11/10 08:06:11;;;;;;;8.70;6.63;;;;;;;0.03;100.00;96541.13;5091975;28;24492;-74
2021/11/10 08:08:38;;;;;;;8.88;6.05;;;;;;;0.01;100.00;96535.22;5092073;28;24421;-74
2021/11/10 08:11:05;;;;;;;10.27;6.03;;;;;;;-0.09;100.00;96537.00;5091830;28;24418;-74
2021/11/10 08:13:31;;;;;;;11.10;6.35;;;;;;;0.07;100.00;96550.44;5092372;28;24449;-76
2021/11/10 08:16:00;;;;;;;9.35;6.25;;;;;;;0.22;100.00;96539.25;5092138;28;24445;-74
2021/11/10 08:18:28;;;;;;;10.77;7.17;;;;;;;0.16;100.00;96545.28;5092045;28;24442;-74
2021/11/10 08:20:55;;;;;;;10.45;7.20;;;;;;;0.01;100.00;96540.31;5091684;28;24488;-75
2021/11/10 08:23:25;;;;;;;12.55;7.72;;;;;;;-0.06;100.00;96547.16;5091750;28;24520;-75
2021/11/10 08:25:52;;;;;;;12.85;7.85;;;;;;;-0.09;100.00;96548.91;5091616;28;24437;-76
2021/11/10 08:28:20;;;;;;;9.73;7.60;;;;;;;-0.04;100.00;96547.16;5091975;28;24441;-76
2021/11/10 08:30:47;;;;;;;9.98;7.53;;;;;;;0.05;100.00;96546.25;5091798;28;24424;-75
2021/11/10 08:33:13;;;;;;;8.93;7.55;;;;;;;0.11;100.00;96549.56;5091689;28;25016;-75
2021/11/10 08:35:40;;;;;;;11.13;8.60;;;;;;;0.19;100.00;96550.34;5091390;28;24456;-76
2021/11/10 08:38:06;;;;;;;14.93;9.27;;;;;;;0.23;100.00;96552.00;5091289;28;24978;-75
2021/11/10 08:40:35;;;;;;;19.30;11.68;;;;;;;0.14;100.00;96551.22;5091568;28;24441;-75
2021/11/10 08:43:02;;;;;;;24.80;12.27;;;;;;;0.18;100.00;96550.34;5091487;28;24795;-75
2021/11/10 08:45:33;;;;;;;16.48;10.93;;;;;;;0.30;100.00;96554.47;5090992;28;24421;-75
2021/11/10 08:48:01;;;;;;;11.60;9.70;;;;;;;0.43;100.00;96558.59;5091635;28;24456;-75
2021/11/10 08:50:28;;;;;;;15.47;10.73;;;;;;;0.55;100.00;96553.34;5091132;28;24821;-75
2021/11/10 08:52:56;;;;;;;17.50;12.93;;;;;;;0.52;100.00;96552.53;5091404;28;24426;-75
2021/11/10 08:55:22;;;;;;;14.80;11.40;;;;;;;0.32;100.00;96540.03;5091282;28;24444;-75
2021/11/10 08:57:50;;;;;;;16.63;10.95;;;;;;;0.36;100.00;96534.03;5091048;28;24445;-74
2021/11/10 09:00:20;;;;;;;17.40;10.32;;;;;;;0.50;100.00;96534.72;5090939;28;24422;-75
2021/11/10 09:02:47;;;;;;;14.63;9.25;;;;;;;0.76;100.00;96556.53;5090856;28;25074;-75
2021/11/10 09:05:14;;;;;;;13.73;9.15;;;;;;;0.87;100.00;96549.59;5090468;28;24425;-75
2021/11/10 09:07:41;;;;;;;13.30;8.18;;;;;;;0.98;100.00;96560.50;5090727;28;24441;-75
2021/11/10 09:10:10;;;;;;;10.60;8.23;;;;;;;1.05;100.00;96562.13;5094015;22;24470;-72
2021/11/10 09:12:38;;;;;;;13.57;9.57;;;;;;;1.10;100.00;96562.88;5072340;28;24427;-73
2021/11/10 09:15:12;;;;;;;13.30;8.85;;;;;;;1.20;100.00;96568.72;5072075;28;24486;-73
2021/11/10 09:17:40;;;;;;;10.45;8.75;;;;;;;1.28;100.00;96576.28;5071433;28;24419;-73
2021/11/10 09:20:09;;;;;;;12.45;8.73;;;;;;;1.30;100.00;96575.41;5085518;28;24975;-73
2021/11/10 09:22:38;;;;;;;13.60;8.68;;;;;;;1.37;100.00;96568.47;5092408;28;24429;-73
2021/11/10 09:25:06;;;;;;;11.65;9.38;;;;;;;1.44;100.00;96572.63;5092518;28;24429;-75
2021/11/10 09:27:32;;;;;;;13.10;9.40;;;;;;;1.51;100.00;96560.63;5091921;28;24442;-73
2021/11/10 09:29:59;;;;;;;12.07;9.15;;;;;;;1.35;100.00;96558.31;5091240;28;24430;-73
2021/11/10 09:32:27;;;;;;;19.67;9.23;;;;;;;1.31;100.00;96550.72;5091797;28;24418;-73
2021/11/10 09:34:54;;;;;;;11.90;8.63;;;;;;;1.39;100.00;96551.44;5091651;28;24436;-72
2021/11/10 09:37:21;;;;;;;11.48;9.15;;;;;;;1.53;100.00;96548.72;5091570;28;24441;-73
2021/11/10 09:39:47;;;;;;;14.47;9.00;;;;;;;1.56;100.00;96551.19;5091119;28;24426;-73
2021/11/10 09:42:14;;;;;;;13.02;9.02;;;;;;;1.70;100.00;96539.06;5090637;28;24454;-72
2021/11/10 09:44:41;;;;;;;13.70;8.95;;;;;;;1.80;100.00;96550.81;5090305;28;24418;-73
2021/11/10 09:47:08;;;;;;;16.98;8.85;;;;;;;1.97;100.00;96544.63;5090772;28;24453;-73
2021/11/10 09:49:36;;;;;;;16.33;8.77;;;;;;;2.03;100.00;96547.06;5091375;28;24418;-73
2021/11/10 09:52:03;;;;;;;10.52;8.43;;;;;;;2.10;100.00;96546.09;5090803;28;24982;-73
2021/11/10 09:54:29;;;;;;;12.77;9.10;;;;;;;2.02;100.00;96545.38;5090593;28;24422;-72
2021/11/10 09:56:56;;;;;;;16.45;10.27;;;;;;;2.04;100.00;96544.50;5090744;28;24441;-71
2021/11/10 09:59:23;;;;;;;15.55;9.65;;;;;;;1.85;100.00;96551.59;5090522;28;25034;-73
2021/11/10 10:01:51;;;;;;;18.98;9.95;;;;;;;1.80;100.00;96538.06;5090895;28;24426;-73
2021/11/10 10:04:18;;;;;;;15.63;10.30;;;;;;;1.98;100.00;96542.03;5090947;28;24955;-72
2021/11/10 10:06:46;;;;;;;18.55;9.80;;;;;;;2.20;100.00;96539.09;5090365;28;24421;-72
2021/11/10 10:09:13;;;;;;;14.40;9.82;;;;;;;2.30;100.00;96540.59;5090571;28;24426;-71
2021/11/10 10:11:40;;;;;;;14.63;10.40;;;;;;;2.42;100.00;96542.97;5090191;28;24508;-72
2021/11/10 10:14:07;;;;;;;16.60;10.65;;;;;;;2.67;100.00;96545.91;5091134;28;24418;-72
2021/11/10 10:16:36;;;;;;;14.25;11.10;;;;;;;2.79;100.00;96535.44;5090263;28;24783;-73
2021/11/10 10:19:07;;;;;;;18.33;11.25;;;;;;;2.87;100.00;96525.03;5090531;28;24414;-73
2021/11/10 10:21:34;;;;;;;15.07;9.77;;;;;;;3.01;100.00;96525.59;5090287;28;24899;-73
2021/11/10 10:24:02;;;;;;;15.32;10.20;;;;;;;3.07;100.00;96530.56;5090215;28;24410;-72
2021/11/10 10:26:29;;;;;;;16.25;11.43;;;;;;;3.11;100.00;96533.91;5090050;28;24533;-73
2021/11/10 10:28:57;;;;;;;18.98;11.38;;;;;;;3.40;100.00;96529.00;5090951;28;24449;-73
2021/11/10 10:31:26;;;;;;;14.52;10.52;;;;;;;3.37;100.00;96523.09;5094446;28;24449;-73
2021/11/10 10:33:55;;;;;;;13.57;10.10;;;;;;;3.37;100.00;96517.97;5094309;28;24422;-73
2021/11/10 10:36:25;;;;;;;20.48;10.73;;;;;;;3.44;100.00;96522.09;5093896;28;24421;-74
2021/11/10 10:38:54;;;;;;;16.20;11.23;;;;;;;3.59;100.00;96520.88;5093895;28;24978;-74
2021/11/10 10:41:27;;;;;;;16.10;10.25;;;;;;;3.59;100.00;96514.03;5090386;28;24427;-74
2021/11/10 10:43:57;;;;;;;13.93;9.77;;;;;;;3.77;100.00;96504.25;5074016;28;24418;-73
2021/11/10 10:46:27;;;;;;;17.33;10.52;;;;;;;3.88;100.00;96508.22;5073720;28;24514;-73
2021/11/10 10:49:11;;;;;;;14.45;10.52;;;;;;;4.32;100.00;96506.25;5073735;28;24443;-74
2021/11/10 10:51:38;;;;;;;24.38;11.57;;;;;;;4.41;100.00;96501.75;5073733;28;24426;-73
2021/11/10 10:54:07;;;;;;;15.50;11.07;;;;;;;4.54;100.00;96491.13;5073702;28;24419;-75
2021/11/10 10:56:36;;;;;;;18.40;14.57;;;;;;;4.95;100.00;96483.97;5073324;28;24575;-74
2021/11/10 10:59:06;;;;;;;18.55;13.48;;;;;;;5.10;100.00;96486.09;5073353;28;24441;-73
2021/11/10 11:01:35;;;;;;;20.17;11.07;;;;;;;5.03;100.00;96486.31;5073239;28;24431;-73
2021/11/10 11:04:04;;;;;;;19.45;10.93;;;;;;;5.17;100.00;96493.63;5073419;28;24430;-73
2021/11/10 11:06:37;;;;;;;13.50;10.05;;;;;;;5.19;100.00;96494.41;5072988;28;24422;-73
2021/11/10 11:09:17;;;;;;;19.35;9.60;;;;;;;5.30;100.00;96488.09;5073389;28;24465;-72
2021/11/10 11:11:58;;;;;;;17.65;10.75;;;;;;;5.49;100.00;96493.50;5079721;28;25073;-73
2021/11/10 11:14:38;;;;;;;14.23;10.50;;;;;;;5.48;100.00;96491.78;5093586;28;24420;-74
2021/11/10 11:17:05;;;;;;;14.68;10.07;;;;;;;5.43;100.00;96493.66;5093376;28;24988;-74
2021/11/10 11:19:36;;;;;;;18.98;10.98;;;;;;;5.42;100.00;96484.28;5093369;28;24963;-74
2021/11/10 11:22:04;;;;;;;18.45;9.68;;;;;;;5.53;100.00;96476.25;5093234;28;24457;-74
2021/11/10 11:24:44;;;;;;;14.82;9.55;;;;;;;5.68;99.30;96483.47;5093075;28;24433;-74